Time;durP1;ratioP1;P1;durP2;ratioP2;P2;SDS_P1;SDS_P2;PMS_P1;PMS_P2;Temp;Humidity;BMP_temperature;BMP_pressure;BME280_temperature;BME280_humidity;BME280_pressure;Samples;Min_cycle;Max_cycle;Signal;HPM_P1;HPM_P2
2021/10/15 00:01:45;;;;;;;24.17;21.73;;;13.40;99.90;;;;;;4953737;29;20122;-52
2021/10/15 00:04:14;;;;;;;29.90;23.80;;;13.50;99.90;;;;;;4954386;29;20138;-52
2021/10/15 00:06:40;;;;;;;25.17;21.70;;;13.50;99.90;;;;;;4954123;29;20598;-52
2021/10/15 00:09:07;;;;;;;26.08;23.40;;;13.50;99.90;;;;;;4954215;29;20063;-51
2021/10/15 00:11:33;;;;;;;26.02;23.33;;;13.50;99.90;;;;;;4953920;29;20147;-52
2021/10/15 00:13:59;;;;;;;23.88;21.38;;;13.50;99.90;;;;;;4954821;29;20051;-51
2021/10/15 00:16:25;;;;;;;25.15;22.20;;;13.50;99.90;;;;;;4953402;29;20051;-52
2021/10/15 00:18:53;;;;;;;24.23;21.42;;;13.50;99.90;;;;;;4953839;29;20134;-51
2021/10/15 00:21:22;;;;;;;25.67;21.13;;;13.50;99.90;;;;;;4953776;29;20063;-49
2021/10/15 00:23:48;;;;;;;24.48;21.88;;;13.50;99.90;;;;;;4953824;29;20126;-53
2021/10/15 00:26:14;;;;;;;24.25;20.40;;;13.50;99.90;;;;;;4953858;29;20094;-52
2021/10/15 00:28:40;;;;;;;24.20;20.83;;;13.50;99.90;;;;;;4953192;29;20059;-50
2021/10/15 00:31:06;;;;;;;25.60;20.25;;;13.50;99.90;;;;;;4953650;29;20101;-53
2021/10/15 00:33:35;;;;;;;22.02;19.38;;;13.50;99.90;;;;;;4953275;29;20055;-52
2021/10/15 00:36:01;;;;;;;22.02;19.63;;;13.50;99.90;;;;;;4953294;29;20539;-52
2021/10/15 00:38:30;;;;;;;21.42;19.05;;;13.50;99.90;;;;;;4953997;29;20094;-52
2021/10/15 00:40:59;;;;;;;22.40;20.05;;;13.50;99.90;;;;;;4954253;29;20063;-52
2021/10/15 00:43:27;;;;;;;24.35;20.58;;;13.50;99.90;;;;;;4953672;29;20051;-51
2021/10/15 00:45:53;;;;;;;22.90;20.67;;;13.50;99.90;;;;;;4953214;29;20508;-54
2021/10/15 00:48:20;;;;;;;22.42;20.02;;;13.50;99.90;;;;;;4953084;29;20535;-48
2021/10/15 00:50:48;;;;;;;23.92;21.52;;;13.40;99.90;;;;;;4953391;29;20468;-52
2021/10/15 00:53:14;;;;;;;22.63;20.20;;;13.40;99.90;;;;;;4935794;29;20397;-50
2021/10/15 00:55:43;;;;;;;26.45;21.27;;;13.40;99.90;;;;;;4953035;28;20047;-49
2021/10/15 00:58:09;;;;;;;24.98;22.38;;;13.40;99.90;;;;;;4936266;29;20437;-48
2021/10/15 01:00:35;;;;;;;26.27;23.60;;;13.30;99.90;;;;;;4952776;29;20087;-50
2021/10/15 01:03:04;;;;;;;26.60;23.77;;;13.30;99.90;;;;;;4953109;29;20058;-52
2021/10/15 01:05:30;;;;;;;26.98;24.17;;;13.30;99.90;;;;;;4952269;28;20065;-48
2021/10/15 01:07:57;;;;;;;26.95;23.50;;;13.30;99.90;;;;;;4951399;29;20047;-51
2021/10/15 01:10:28;;;;;;;29.95;23.58;;;13.30;99.90;;;;;;4952832;29;20066;-49
2021/10/15 01:12:55;;;;;;;25.58;22.98;;;13.30;99.90;;;;;;4953107;29;20054;-51
2021/10/15 01:15:24;;;;;;;29.00;25.50;;;13.30;99.90;;;;;;4934880;29;20070;-49
2021/10/15 01:17:53;;;;;;;30.13;25.83;;;13.30;99.90;;;;;;4952053;29;20062;-50
2021/10/15 01:20:21;;;;;;;30.85;27.60;;;13.30;99.90;;;;;;4952484;29;20079;-51
2021/10/15 01:22:47;;;;;;;28.67;25.45;;;13.30;99.90;;;;;;4952874;29;20091;-51
2021/10/15 01:25:16;;;;;;;28.70;25.80;;;13.30;99.90;;;;;;4936112;29;20059;-50
2021/10/15 01:27:42;;;;;;;31.15;27.30;;;13.30;99.90;;;;;;4952307;29;20094;-49
2021/10/15 01:30:12;;;;;;;29.52;26.48;;;13.30;99.90;;;;;;4952681;29;20472;-48
2021/10/15 01:32:38;;;;;;;29.65;26.60;;;13.30;99.90;;;;;;4952140;29;20055;-49
2021/10/15 01:35:04;;;;;;;28.10;25.23;;;13.30;99.90;;;;;;4950308;29;20106;-50
2021/10/15 01:37:30;;;;;;;29.15;26.17;;;13.20;99.90;;;;;;4952229;29;20055;-51
2021/10/15 01:39:56;;;;;;;32.13;27.45;;;13.30;99.90;;;;;;4952072;29;20118;-51
2021/10/15 01:45:10;;;;;;;33.60;27.75;;;13.20;99.90;;;;;;4951697;29;20059;-51
2021/10/15 01:47:36;;;;;;;32.83;26.30;;;13.30;99.90;;;;;;4951991;29;20058;-48
2021/10/15 01:50:02;;;;;;;31.55;27.83;;;13.30;99.90;;;;;;4952070;29;20066;-53
2021/10/15 01:52:29;;;;;;;31.42;28.25;;;13.30;99.90;;;;;;4951776;29;20059;-52
2021/10/15 01:54:55;;;;;;;30.35;27.25;;;13.20;99.90;;;;;;4951632;29;20078;-49
2021/10/15 01:57:21;;;;;;;31.15;28.02;;;13.30;99.90;;;;;;4952226;29;20082;-50
2021/10/15 01:59:47;;;;;;;29.88;26.73;;;13.30;99.90;;;;;;4934791;29;20058;-51
2021/10/15 02:02:15;;;;;;;29.23;26.20;;;13.20;99.90;;;;;;4952081;29;20059;-50
2021/10/15 02:04:41;;;;;;;30.38;25.98;;;13.20;99.90;;;;;;4951754;29;20574;-51
2021/10/15 02:07:09;;;;;;;30.70;27.42;;;13.20;99.90;;;;;;4951998;29;20066;-48
2021/10/15 02:09:35;;;;;;;30.00;27.02;;;13.20;99.90;;;;;;4951664;29;20047;-49
2021/10/15 02:12:03;;;;;;;27.63;24.58;;;13.20;99.90;;;;;;4951362;29;20059;-50
2021/10/15 02:14:30;;;;;;;26.70;23.90;;;13.20;99.90;;;;;;4950868;29;20047;-52
2021/10/15 02:16:56;;;;;;;28.08;24.60;;;13.20;99.90;;;;;;4949680;28;20047;-52
2021/10/15 02:19:23;;;;;;;28.35;22.75;;;13.30;99.90;;;;;;4950967;29;20523;-49
2021/10/15 02:21:54;;;;;;;25.23;22.77;;;13.30;99.90;;;;;;4950836;29;20070;-50
2021/10/15 02:24:20;;;;;;;26.25;23.60;;;13.30;99.90;;;;;;4933831;29;20355;-52
2021/10/15 02:26:46;;;;;;;27.80;23.35;;;13.30;99.90;;;;;;4951178;29;20069;-52
2021/10/15 02:29:12;;;;;;;25.92;23.10;;;13.30;99.90;;;;;;4950951;29;20113;-53
2021/10/15 02:31:41;;;;;;;27.88;23.88;;;13.30;99.90;;;;;;4950439;29;20405;-50
2021/10/15 02:34:10;;;;;;;27.27;24.35;;;13.30;99.90;;;;;;4950468;29;20055;-52
2021/10/15 02:36:41;;;;;;;26.10;23.05;;;13.30;99.90;;;;;;4950854;29;20062;-52
2021/10/15 02:39:07;;;;;;;29.58;23.73;;;13.30;99.90;;;;;;4950962;29;20425;-53
2021/10/15 02:41:39;;;;;;;28.15;24.10;;;13.40;99.90;;;;;;4950578;29;20052;-53
2021/10/15 02:44:07;;;;;;;28.13;23.75;;;13.40;99.90;;;;;;4950466;29;20051;-52
2021/10/15 02:46:34;;;;;;;29.33;23.00;;;13.30;99.90;;;;;;4950928;29;20503;-49
2021/10/15 02:49:00;;;;;;;27.65;22.80;;;13.40;99.90;;;;;;4951343;29;20059;-50
2021/10/15 02:51:29;;;;;;;24.55;21.73;;;13.40;99.90;;;;;;4950486;29;20169;-50
2021/10/15 02:53:55;;;;;;;25.90;21.65;;;13.40;99.90;;;;;;4952216;28;20058;-52
2021/10/15 02:56:21;;;;;;;25.30;22.63;;;13.40;99.90;;;;;;4951857;29;20054;-50
2021/10/15 02:58:48;;;;;;;27.48;21.45;;;13.40;99.90;;;;;;4951656;29;20047;-53
2021/10/15 03:01:14;;;;;;;25.80;20.60;;;13.30;99.90;;;;;;4951623;29;20110;-53
2021/10/15 03:03:40;;;;;;;24.60;20.08;;;13.40;99.90;;;;;;4950453;29;20055;-51
2021/10/15 03:06:07;;;;;;;24.55;21.13;;;13.40;99.90;;;;;;4951508;29;20055;-53
2021/10/15 03:08:33;;;;;;;25.80;20.92;;;13.40;99.90;;;;;;4951447;29;20129;-52
2021/10/15 03:10:59;;;;;;;24.63;21.25;;;13.40;99.90;;;;;;4951390;29;20495;-50
2021/10/15 03:13:25;;;;;;;26.20;22.48;;;13.40;99.90;;;;;;4950981;29;20058;-52
2021/10/15 03:15:51;;;;;;;26.30;21.92;;;13.40;99.90;;;;;;4949604;29;20069;-52
2021/10/15 03:18:18;;;;;;;26.25;19.98;;;13.40;99.90;;;;;;4951326;29;20062;-50
2021/10/15 03:20:49;;;;;;;27.25;21.55;;;13.40;99.90;;;;;;4950527;29;20063;-53
2021/10/15 03:23:15;;;;;;;24.02;21.58;;;13.40;99.90;;;;;;4950230;29;20085;-48
2021/10/15 03:25:41;;;;;;;25.92;21.45;;;13.40;99.90;;;;;;4950003;29;20058;-49
2021/10/15 03:28:10;;;;;;;24.90;21.23;;;13.30;99.90;;;;;;4950931;28;20449;-52
2021/10/15 03:30:39;;;;;;;23.58;20.67;;;13.30;99.90;;;;;;4950968;29;20047;-49
2021/10/15 03:33:05;;;;;;;25.85;19.98;;;13.30;99.90;;;;;;4950824;29;20055;-50
2021/10/15 03:35:34;;;;;;;24.73;21.13;;;13.30;99.90;;;;;;4949741;29;20058;-49
2021/10/15 03:38:01;;;;;;;25.10;19.88;;;13.30;99.90;;;;;;4950042;29;20057;-51
2021/10/15 03:40:28;;;;;;;24.33;19.58;;;13.30;99.90;;;;;;4950036;29;20086;-49
2021/10/15 03:42:54;;;;;;;22.35;19.77;;;13.30;99.90;;;;;;4950406;29;20063;-52
2021/10/15 03:45:23;;;;;;;23.63;19.92;;;13.30;99.90;;;;;;4949926;29;20063;-50
2021/10/15 03:47:49;;;;;;;23.30;19.48;;;13.30;99.90;;;;;;4950097;29;20063;-53
2021/10/15 03:50:15;;;;;;;24.20;18.83;;;13.30;99.90;;;;;;4950567;29;20186;-51
2021/10/15 03:52:41;;;;;;;22.75;18.00;;;13.30;99.90;;;;;;4950692;29;20055;-53
2021/10/15 03:55:10;;;;;;;20.83;18.52;;;13.30;99.90;;;;;;4932904;29;20443;-50
2021/10/15 03:57:36;;;;;;;22.00;17.02;;;13.30;99.90;;;;;;4949914;29;20513;-50
2021/10/15 04:00:08;;;;;;;24.67;17.13;;;13.30;99.90;;;;;;4950280;29;20847;-51
2021/10/15 04:02:44;;;;;;;21.15;16.10;;;13.40;99.90;;;;;;4950597;29;20086;-50
2021/10/15 04:05:12;;;;;;;25.77;18.02;;;13.30;99.90;;;;;;4950487;29;20480;-50
2021/10/15 04:07:39;;;;;;;21.20;17.20;;;13.30;99.90;;;;;;4950587;29;20059;-48
2021/10/15 04:10:07;;;;;;;20.42;15.98;;;13.30;99.90;;;;;;4950933;29;20063;-49
2021/10/15 04:12:34;;;;;;;21.42;16.13;;;13.30;99.90;;;;;;4949365;29;20047;-50
2021/10/15 04:15:19;;;;;;;18.38;14.27;;;13.30;99.90;;;;;;4950558;29;20063;-48
2021/10/15 04:17:45;;;;;;;19.77;15.25;;;13.30;99.90;;;;;;4950241;29;20497;-48
2021/10/15 04:20:12;;;;;;;20.40;14.65;;;13.40;99.90;;;;;;4950193;29;20055;-52
2021/10/15 04:22:40;;;;;;;17.63;15.13;;;13.40;99.90;;;;;;4950487;29;20051;-50
2021/10/15 04:25:07;;;;;;;22.52;13.68;;;13.40;99.90;;;;;;4949763;29;20040;-52
2021/10/15 04:27:34;;;;;;;20.08;13.93;;;13.40;99.90;;;;;;4949769;29;20086;-48
2021/10/15 04:30:00;;;;;;;17.67;13.88;;;13.40;99.90;;;;;;4949925;29;20508;-50
2021/10/15 04:32:26;;;;;;;19.10;13.68;;;13.40;99.90;;;;;;4949792;29;20051;-51
2021/10/15 04:34:53;;;;;;;19.85;13.85;;;13.40;99.90;;;;;;4949512;29;20597;-50
2021/10/15 04:37:19;;;;;;;20.15;14.13;;;13.40;99.90;;;;;;4949635;29;20063;-51
2021/10/15 04:39:45;;;;;;;20.58;13.02;;;13.40;99.90;;;;;;4951434;28;20408;-53
2021/10/15 04:42:11;;;;;;;20.55;12.32;;;13.40;99.90;;;;;;4953430;29;20066;-50
2021/10/15 04:44:37;;;;;;;17.73;11.90;;;13.40;99.90;;;;;;4953741;29;20058;-51
2021/10/15 04:47:04;;;;;;;18.95;11.48;;;13.40;99.90;;;;;;4953156;29;20063;-52
2021/10/15 04:49:30;;;;;;;18.42;11.38;;;13.50;99.90;;;;;;4952792;29;20582;-50
2021/10/15 04:51:56;;;;;;;17.70;12.10;;;13.50;99.90;;;;;;4953167;29;20716;-51
2021/10/15 04:54:22;;;;;;;20.23;12.20;;;13.50;99.90;;;;;;4952137;29;20512;-51
2021/10/15 04:56:49;;;;;;;18.08;10.30;;;13.50;99.90;;;;;;4934992;29;20136;-52
2021/10/15 04:59:14;;;;;;;19.70;10.65;;;13.50;99.90;;;;;;4935354;29;20063;-53
2021/10/15 05:01:44;;;;;;;19.15;11.63;;;13.50;99.90;;;;;;4952557;29;20086;-51
2021/10/15 05:04:11;;;;;;;21.45;12.65;;;13.50;99.90;;;;;;4952841;29;20118;-58
2021/10/15 05:06:38;;;;;;;15.82;12.20;;;13.50;99.90;;;;;;4952162;29;20471;-58
2021/10/15 05:11:34;;;;;;;22.42;13.07;;;13.30;99.90;;;;;;4936533;29;20052;-59
2021/10/15 05:14:01;;;;;;;26.27;15.10;;;13.20;99.90;;;;;;4945238;29;20159;-59
2021/10/15 05:16:28;;;;;;;21.30;14.25;;;13.10;99.90;;;;;;4953375;28;20051;-60
2021/10/15 05:18:57;;;;;;;24.17;16.25;;;13.10;99.90;;;;;;4953517;28;20063;-59
2021/10/15 05:21:23;;;;;;;27.63;18.23;;;13.10;99.90;;;;;;4952402;29;20102;-60
2021/10/15 05:23:49;;;;;;;25.88;17.90;;;13.00;99.90;;;;;;4952506;29;20083;-60
2021/10/15 05:26:15;;;;;;;28.25;18.90;;;13.00;99.90;;;;;;4952562;29;20082;-57
2021/10/15 05:28:41;;;;;;;26.35;19.13;;;12.90;99.90;;;;;;4952648;29;20535;-59
2021/10/15 05:31:10;;;;;;;29.30;19.63;;;12.90;99.90;;;;;;4953008;29;20066;-59
2021/10/15 05:33:36;;;;;;;32.28;21.95;;;12.80;99.90;;;;;;4940448;29;20059;-58
2021/10/15 05:36:02;;;;;;;29.38;19.35;;;12.80;99.90;;;;;;4933182;29;20059;-57
2021/10/15 05:38:29;;;;;;;25.42;19.15;;;12.80;99.90;;;;;;4933336;29;20130;-56
2021/10/15 05:40:55;;;;;;;23.13;16.73;;;12.80;99.90;;;;;;4951359;29;20067;-54
2021/10/15 05:43:21;;;;;;;22.10;16.02;;;12.80;99.90;;;;;;4950428;29;20459;-54
2021/10/15 05:45:47;;;;;;;25.00;15.95;;;12.80;99.90;;;;;;4938791;29;20444;-54
2021/10/15 05:48:13;;;;;;;25.27;16.15;;;12.80;99.90;;;;;;4952228;28;20056;-55
2021/10/15 05:50:41;;;;;;;10.45;6.60;;;12.80;99.90;;;;;;4950783;28;20091;-54
2021/10/15 05:53:10;;;;;;;9.40;7.03;;;12.70;99.90;;;;;;4934217;29;20116;-55
2021/10/15 05:55:57;;;;;;;8.38;4.72;;;12.40;99.90;;;;;;4951514;28;20051;-49
2021/10/15 06:01:10;;;;;;;3.05;1.35;;;11.90;99.90;;;;;;4951478;29;20055;-49
2021/10/15 06:03:37;;;;;;;0.88;0.65;;;11.70;99.90;;;;;;4951680;29;20576;-51
2021/10/15 06:07:03;;;;;;;4.30;0.73;;;11.60;99.90;;;;;;4952719;28;20066;-50
2021/10/15 06:14:33;;;;;;;5.70;1.58;;;11.30;99.90;;;;;;4950430;29;20083;-49
2021/10/15 06:17:12;;;;;;;7.75;1.92;;;11.20;99.90;;;;;;4953111;28;20059;-50
2021/10/15 06:22:18;;;;;;;18.65;13.68;;;11.20;99.90;;;;;;4951370;29;20062;-47
2021/10/15 06:24:44;;;;;;;5.53;0.98;;;11.10;99.90;;;;;;4951365;29;20070;-53
2021/10/15 06:27:10;;;;;;;7.10;1.50;;;11.10;99.90;;;;;;4950977;29;20755;-49
2021/10/15 06:29:36;;;;;;;6.30;1.58;;;11.10;99.90;;;;;;4951327;29;20489;-53
2021/10/15 06:32:03;;;;;;;5.97;1.00;;;11.10;99.90;;;;;;4951373;29;20051;-53
2021/10/15 06:34:29;;;;;;;8.75;1.40;;;11.10;99.90;;;;;;4949817;29;20495;-52
2021/10/15 06:36:55;;;;;;;5.68;2.00;;;11.10;99.90;;;;;;4951190;29;20055;-52
2021/10/15 06:39:21;;;;;;;7.45;1.42;;;11.00;99.90;;;;;;4949780;29;20062;-50
2021/10/15 06:41:47;;;;;;;9.35;2.35;;;11.00;99.90;;;;;;4950978;29;20054;-53
2021/10/15 06:44:20;;;;;;;9.73;1.58;;;11.00;99.90;;;;;;4950798;29;20183;-54
2021/10/15 06:46:46;;;;;;;10.60;1.20;;;10.90;99.90;;;;;;4950241;29;20055;-53
2021/10/15 06:49:14;;;;;;;7.35;1.55;;;10.90;99.90;;;;;;4948843;28;20051;-54
2021/10/15 06:51:41;;;;;;;6.97;1.60;;;10.80;99.90;;;;;;4950667;28;20110;-51
2021/10/15 06:54:09;;;;;;;7.07;1.02;;;10.80;99.90;;;;;;4951228;28;20074;-52
2021/10/15 06:56:36;;;;;;;7.38;1.50;;;10.80;99.90;;;;;;4951247;28;20725;-54
2021/10/15 06:59:04;;;;;;;9.00;3.70;;;10.80;99.90;;;;;;4950457;29;20051;-51
2021/10/15 07:01:31;;;;;;;24.25;17.13;;;10.80;99.90;;;;;;4950874;28;20074;-49
2021/10/15 07:03:57;;;;;;;7.88;1.48;;;10.90;99.90;;;;;;4950268;28;20047;-52
2021/10/15 07:06:27;;;;;;;7.75;1.45;;;10.90;99.90;;;;;;4949287;29;20062;-52
2021/10/15 07:08:55;;;;;;;4.93;1.30;;;10.80;99.90;;;;;;4950997;28;20055;-51
2021/10/15 07:11:24;;;;;;;6.53;1.23;;;10.80;99.90;;;;;;4950200;29;20661;-53
2021/10/15 07:13:50;;;;;;;8.52;1.52;;;10.80;99.90;;;;;;4950294;29;20453;-53
2021/10/15 07:16:18;;;;;;;6.78;1.83;;;10.80;99.90;;;;;;4950073;29;20054;-50
2021/10/15 07:18:44;;;;;;;7.80;2.28;;;10.80;99.90;;;;;;4916712;29;20070;-50
2021/10/15 07:21:10;;;;;;;5.97;1.60;;;10.80;99.90;;;;;;4950169;29;20142;-51
2021/10/15 07:23:36;;;;;;;7.38;1.55;;;10.80;99.90;;;;;;4950233;29;20145;-50
2021/10/15 07:26:03;;;;;;;9.55;2.30;;;10.80;99.90;;;;;;4950101;29;20055;-50
2021/10/15 07:28:30;;;;;;;6.93;1.42;;;10.70;99.90;;;;;;4949708;29;20058;-51
2021/10/15 07:30:58;;;;;;;7.88;1.60;;;10.70;99.90;;;;;;4949938;29;20126;-50
2021/10/15 07:33:24;;;;;;;6.60;1.88;;;10.70;99.90;;;;;;4949745;28;20415;-50
2021/10/15 07:35:50;;;;;;;5.30;1.27;;;10.70;99.90;;;;;;4949583;29;20142;-49
2021/10/15 07:38:19;;;;;;;8.55;1.60;;;10.70;99.90;;;;;;4949214;29;20543;-48
2021/10/15 07:40:45;;;;;;;6.35;1.30;;;10.70;99.90;;;;;;4950675;29;20056;-50
2021/10/15 07:43:11;;;;;;;9.48;1.83;;;10.70;99.90;;;;;;4950017;29;20456;-47
2021/10/15 07:45:37;;;;;;;8.93;1.55;;;10.70;99.90;;;;;;4950491;29;20150;-50
2021/10/15 07:48:04;;;;;;;6.72;1.48;;;10.70;99.90;;;;;;4950357;29;20105;-52
2021/10/15 07:50:30;;;;;;;10.60;2.22;;;10.70;99.90;;;;;;4950196;29;20133;-47
2021/10/15 07:53:00;;;;;;;13.52;1.52;;;10.80;99.90;;;;;;4950071;29;20082;-50
2021/10/15 07:55:26;;;;;;;8.05;1.23;;;10.80;99.90;;;;;;4950078;29;20408;-48
2021/10/15 07:57:52;;;;;;;10.23;2.05;;;10.80;99.90;;;;;;4950071;29;20055;-51
2021/10/15 08:00:19;;;;;;;8.00;1.77;;;11.00;99.90;;;;;;4932430;29;20051;-50
2021/10/15 08:02:46;;;;;;;7.00;1.40;;;11.30;99.90;;;;;;4950348;29;20106;-47
2021/10/15 08:05:16;;;;;;;7.93;1.40;;;11.60;99.90;;;;;;4932850;29;20054;-49
2021/10/15 08:07:42;;;;;;;7.18;1.45;;;11.80;99.90;;;;;;4950269;29;20106;-49
2021/10/15 08:10:12;;;;;;;6.15;1.55;;;12.20;99.90;;;;;;4950099;29;20110;-47
2021/10/15 08:12:39;;;;;;;9.07;1.38;;;12.60;99.90;;;;;;4950314;29;20059;-49
2021/10/15 08:15:08;;;;;;;6.25;1.17;;;12.80;99.90;;;;;;4952418;28;20130;-50
2021/10/15 08:17:37;;;;;;;8.35;1.48;;;13.20;99.90;;;;;;4954091;29;20059;-48
2021/10/15 08:20:04;;;;;;;6.07;1.27;;;13.70;99.90;;;;;;4953596;29;20137;-50
2021/10/15 08:22:33;;;;;;;10.48;1.80;;;14.30;99.90;;;;;;4953367;29;20058;-52
2021/10/15 08:24:59;;;;;;;7.93;1.25;;;14.80;99.90;;;;;;4953358;29;20153;-49
2021/10/15 08:27:25;;;;;;;8.70;2.03;;;15.40;99.90;;;;;;4953012;29;20519;-48
2021/10/15 08:29:53;;;;;;;6.80;1.40;;;14.90;99.90;;;;;;4952828;29;20085;-50
2021/10/15 08:32:19;;;;;;;8.27;1.50;;;14.60;99.90;;;;;;4953098;29;20055;-48
2021/10/15 08:34:48;;;;;;;11.13;2.22;;;14.10;99.90;;;;;;4952501;29;20043;-50
2021/10/15 08:37:15;;;;;;;7.05;1.30;;;14.50;99.90;;;;;;4952492;29;20055;-52
2021/10/15 08:39:41;;;;;;;6.10;1.13;;;15.10;99.90;;;;;;4935376;29;20133;-53
2021/10/15 08:42:07;;;;;;;7.90;2.58;;;15.40;99.90;;;;;;4936102;29;20134;-48
2021/10/15 08:44:39;;;;;;;9.05;1.88;;;15.10;99.90;;;;;;4952850;29;20055;-49
2021/10/15 08:47:06;;;;;;;8.60;2.00;;;14.60;99.90;;;;;;4953125;29;20130;-52
2021/10/15 08:49:32;;;;;;;8.63;1.52;;;14.30;99.90;;;;;;4952926;29;20134;-49
2021/10/15 08:54:45;;;;;;;8.27;2.10;;;14.60;99.90;;;;;;4955672;28;20046;-49
2021/10/15 08:57:15;;;;;;;6.70;1.88;;;15.10;99.90;;;;;;4953260;29;20066;-50
2021/10/15 08:59:46;;;;;;;7.78;1.95;;;15.90;99.90;;;;;;4953250;29;20055;-48
2021/10/15 09:02:21;;;;;;;8.98;1.88;;;16.50;99.90;;;;;;4953496;29;20055;-50
2021/10/15 09:04:51;;;;;;;7.53;1.63;;;17.10;99.90;;;;;;4966054;28;20470;-50
2021/10/15 09:07:22;;;;;;;6.57;1.38;;;17.20;99.90;;;;;;4972300;28;20104;-48
2021/10/15 09:10:05;;;;;;;8.80;1.90;;;17.70;99.90;;;;;;4972727;28;20065;-51
2021/10/15 09:12:44;;;;;;;9.55;2.13;;;18.10;99.90;;;;;;4972064;28;20055;-52
2021/10/15 09:15:11;;;;;;;10.25;1.70;;;18.20;99.90;;;;;;4959368;28;20055;-48
2021/10/15 09:17:51;;;;;;;7.10;1.80;;;18.50;99.90;;;;;;4951793;29;20070;-48
2021/10/15 09:20:44;;;;;;;8.20;1.80;;;18.60;99.90;;;;;;4952231;29;20673;-49
2021/10/15 09:23:17;;;;;;;8.77;1.65;;;18.70;99.90;;;;;;4950090;29;20730;-52
2021/10/15 09:25:46;;;;;;;9.35;1.48;;;19.30;99.90;;;;;;4950492;28;20050;-51
2021/10/15 09:28:18;;;;;;;9.75;1.83;;;19.70;99.90;;;;;;4952688;29;20499;-52
2021/10/15 09:30:50;;;;;;;7.85;1.92;;;19.60;99.90;;;;;;4934819;29;20071;-49
2021/10/15 09:33:20;;;;;;;9.65;2.40;;;20.10;99.90;;;;;;4952166;29;20059;-52
2021/10/15 09:35:47;;;;;;;11.57;2.08;;;20.20;99.20;;;;;;4951924;29;20625;-51
2021/10/15 09:38:13;;;;;;;9.50;1.80;;;20.20;98.80;;;;;;4952364;29;20141;-50
2021/10/15 09:40:45;;;;;;;8.15;2.10;;;20.20;94.40;;;;;;4951944;29;20492;-51
2021/10/15 09:43:11;;;;;;;;;;;20.40;92.50;;;;;;4952822;29;20081;-51
2021/10/15 09:45:38;;;;;;;10.48;2.30;;;20.30;76.00;;;;;;4952319;29;19933;-53
2021/10/15 09:48:25;;;;;;;6.80;1.80;;;20.60;95.00;;;;;;4951926;29;20067;-53
2021/10/15 09:51:17;;;;;;;9.40;2.63;;;20.90;78.00;;;;;;4951820;29;20150;-54
2021/10/15 09:54:09;;;;;;;7.32;1.38;;;20.80;70.40;;;;;;4951332;29;20641;-55
2021/10/15 09:56:54;;;;;;;8.00;2.03;;;20.90;77.20;;;;;;4951644;29;20058;-54
2021/10/15 09:59:20;;;;;;;8.23;2.10;;;20.20;68.70;;;;;;4951386;29;20062;-56
2021/10/15 10:01:46;;;;;;;6.72;1.65;;;19.10;84.50;;;;;;4951866;29;20059;-56
2021/10/15 10:04:13;;;;;;;8.48;2.35;;;19.20;90.20;;;;;;4951715;29;20051;-54
2021/10/15 10:06:39;;;;;;;9.65;2.95;;;19.70;82.00;;;;;;4951321;29;20066;-55
2021/10/15 10:09:07;;;;;;;10.40;2.20;;;20.40;86.10;;;;;;4934246;29;20055;-55
2021/10/15 10:11:33;;;;;;;12.27;2.22;;;20.60;76.50;;;;;;4951241;29;20065;-53
2021/10/15 10:13:59;;;;;;;10.57;2.47;;;19.70;82.60;;;;;;4951438;29;20062;-54
2021/10/15 10:16:28;;;;;;;8.38;2.13;;;18.90;88.00;;;;;;4951337;29;20416;-55
2021/10/15 10:19:01;;;;;;;12.82;2.65;;;18.30;88.60;;;;;;4951338;29;20125;-55
2021/10/15 10:21:33;;;;;;;10.50;2.15;;;18.10;91.60;;;;;;4951295;29;20114;-54
2021/10/15 10:24:16;;;;;;;10.48;2.58;;;17.90;92.40;;;;;;4951292;29;20765;-52
2021/10/15 10:26:45;;;;;;;10.68;2.97;;;18.60;90.60;;;;;;4917365;29;20067;-54
2021/10/15 10:29:11;;;;;;;12.25;2.55;;;18.40;92.30;;;;;;4951867;29;20496;-52
2021/10/15 10:31:38;;;;;;;10.35;2.80;;;18.90;90.50;;;;;;4951775;29;20063;-54
2021/10/15 10:34:06;;;;;;;16.98;3.35;;;19.80;84.20;;;;;;4951264;29;20111;-55
2021/10/15 10:36:34;;;;;;;11.73;2.85;;;20.20;79.00;;;;;;4950420;28;20157;-56
2021/10/15 10:39:21;;;;;;;12.07;2.53;;;20.90;69.00;;;;;;4949609;29;20057;-53
2021/10/15 10:42:09;;;;;;;11.10;3.17;;;20.40;60.90;;;;;;4932845;29;20114;-52
2021/10/15 10:44:38;;;;;;;14.52;3.40;;;20.80;56.90;;;;;;4951289;29;20420;-54
2021/10/15 10:47:14;;;;;;;13.07;4.50;;;20.60;59.00;;;;;;4950748;29;20051;-56
2021/10/15 10:49:43;;;;;;;14.73;2.72;;;21.10;56.00;;;;;;4950504;29;20059;-54
2021/10/15 10:52:20;;;;;;;27.30;13.10;;;19.70;56.20;;;;;;4933065;29;20063;-57
2021/10/15 10:54:48;;;;;;;9.50;2.70;;;19.80;59.80;;;;;;4950502;29;20149;-57
2021/10/15 10:57:23;;;;;;;10.63;3.30;;;19.10;58.50;;;;;;4950697;29;20059;-57
2021/10/15 10:59:51;;;;;;;12.57;4.35;;;19.60;57.40;;;;;;4951967;28;20146;-57
2021/10/15 11:02:20;;;;;;;12.38;2.90;;;20.00;53.70;;;;;;4950071;29;20074;-58
2021/10/15 11:04:52;;;;;;;13.88;5.25;;;20.70;53.60;;;;;;4950385;29;20576;-58
2021/10/15 11:07:21;;;;;;;10.88;3.50;;;21.30;51.80;;;;;;4950592;29;20069;-58
2021/10/15 11:09:56;;;;;;;11.05;4.78;;;21.30;49.40;;;;;;4950328;29;20130;-58
2021/10/15 11:12:42;;;;;;;16.75;8.77;;;22.20;50.80;;;;;;4950846;29;20054;-55
2021/10/15 11:15:12;;;;;;;12.52;3.65;;;22.80;46.50;;;;;;4950936;29;20058;-58
2021/10/15 11:17:49;;;;;;;14.05;2.90;;;23.20;47.10;;;;;;4951040;29;20047;-58
2021/10/15 11:20:37;;;;;;;10.75;2.97;;;22.70;45.40;;;;;;4950566;29;20117;-56
2021/10/15 11:23:09;;;;;;;12.60;3.10;;;23.10;46.40;;;;;;4949925;29;20516;-58
2021/10/15 11:25:55;;;;;;;19.75;8.98;;;23.40;48.00;;;;;;4950367;29;20047;-57
2021/10/15 11:28:21;;;;;;;17.08;12.07;;;23.30;46.20;;;;;;4950559;29;20085;-57
2021/10/15 11:30:50;;;;;;;12.40;4.63;;;23.00;48.10;;;;;;4950102;29;20055;-56
2021/10/15 11:33:25;;;;;;;25.92;17.20;;;21.90;48.40;;;;;;4950251;29;20428;-57
2021/10/15 11:35:54;;;;;;;19.17;8.55;;;20.70;49.00;;;;;;4950785;29;20065;-56
2021/10/15 11:38:28;;;;;;;15.68;8.30;;;19.90;52.00;;;;;;4950192;29;20589;-57
2021/10/15 11:40:56;;;;;;;15.63;5.00;;;18.90;53.30;;;;;;4950077;29;20571;-57
2021/10/15 11:43:22;;;;;;;11.98;3.03;;;18.10;56.00;;;;;;4948286;29;20055;-57
2021/10/15 11:45:55;;;;;;;11.52;3.15;;;18.50;56.10;;;;;;4950012;29;20066;-57
2021/10/15 11:48:34;;;;;;;9.30;3.13;;;19.70;55.50;;;;;;4949146;28;20059;-57
2021/10/15 11:51:04;;;;;;;10.98;2.60;;;20.50;52.00;;;;;;4953655;29;20130;-57
2021/10/15 11:53:40;;;;;;;13.30;4.35;;;21.60;51.10;;;;;;4952075;29;20051;-58
2021/10/15 11:56:15;;;;;;;11.70;2.28;;;22.40;49.80;;;;;;4953459;29;20485;-58
2021/10/15 11:58:44;;;;;;;10.48;3.58;;;22.30;48.20;;;;;;4953637;29;20055;-58
2021/10/15 12:01:19;;;;;;;11.35;2.97;;;21.30;48.10;;;;;;4952814;29;20488;-57
2021/10/15 12:03:55;;;;;;;11.38;2.72;;;20.10;47.60;;;;;;4952607;28;20055;-57
2021/10/15 12:06:38;;;;;;;10.77;2.80;;;19.00;49.70;;;;;;4952805;28;20057;-58
2021/10/15 12:09:10;;;;;;;12.05;2.30;;;18.20;51.80;;;;;;4962926;28;20054;-59
2021/10/15 12:11:45;;;;;;;10.60;3.03;;;19.10;51.30;;;;;;4953107;29;20055;-58
2021/10/15 12:14:13;;;;;;;10.48;2.63;;;20.00;51.70;;;;;;4952846;29;20117;-58
2021/10/15 12:16:51;;;;;;;13.45;3.15;;;20.50;49.40;;;;;;4955575;28;20051;-57
2021/10/15 12:19:17;;;;;;;14.50;3.40;;;21.50;48.00;;;;;;4953159;29;20051;-58
2021/10/15 12:21:53;;;;;;;9.90;2.83;;;21.60;47.40;;;;;;4953287;29;20055;-58
2021/10/15 12:24:40;;;;;;;13.10;2.92;;;21.90;45.70;;;;;;4952982;29;20078;-58
2021/10/15 12:27:09;;;;;;;13.25;6.53;;;22.60;44.90;;;;;;4938691;29;20488;-58
2021/10/15 12:29:47;;;;;;;13.00;3.72;;;22.80;44.70;;;;;;4953931;29;20740;-58
2021/10/15 12:32:20;;;;;;;20.88;13.00;;;22.50;42.00;;;;;;4953041;29;20055;-58
2021/10/15 12:35:16;;;;;;;24.63;15.25;;;22.90;44.70;;;;;;4953028;29;20078;-59
2021/10/15 12:37:48;;;;;;;13.98;5.57;;;23.10;42.30;;;;;;4893787;29;20061;-59
2021/10/15 12:40:34;;;;;;;18.60;8.73;;;22.90;44.60;;;;;;4908096;29;20055;-58
2021/10/15 12:43:07;;;;;;;17.55;7.90;;;21.90;46.10;;;;;;4911329;29;20219;-58
2021/10/15 12:45:49;;;;;;;13.30;5.78;;;20.80;46.80;;;;;;4905547;29;20135;-58
2021/10/15 12:48:24;;;;;;;19.60;9.98;;;19.70;48.30;;;;;;4899064;29;20068;-58
2021/10/15 12:51:13;;;;;;;11.73;5.43;;;18.60;49.30;;;;;;4893635;29;20061;-58
2021/10/15 12:53:50;;;;;;;15.35;8.95;;;19.90;50.20;;;;;;4893211;29;20056;-58
2021/10/15 12:56:25;;;;;;;9.60;2.53;;;20.90;47.80;;;;;;4896260;29;20059;-58
2021/10/15 12:58:56;;;;;;;11.77;2.80;;;22.10;46.00;;;;;;4911644;29;20071;-59
2021/10/15 13:01:26;;;;;;;12.52;3.03;;;22.30;45.30;;;;;;4899895;29;20577;-59
2021/10/15 13:03:56;;;;;;;8.43;2.90;;;22.50;44.70;;;;;;4893262;29;20147;-58
2021/10/15 13:06:27;;;;;;;14.68;6.43;;;23.20;44.00;;;;;;4894890;29;20144;-59